sensor_id;sensor_type;location;lat;lon;timestamp;pressure;altitude;pressure_sealevel;temperature;humidity
60212;BME280;46079;48.686;15.598;2023-04-26T00:02:11;99569.78;;;20.61;46.89
60212;BME280;46079;48.686;15.598;2023-04-26T00:04:37;99563.72;;;20.61;47.06
60212;BME280;46079;48.686;15.598;2023-04-26T00:07:03;99575.88;;;20.62;47.16
60212;BME280;46079;48.686;15.598;2023-04-26T00:09:29;99578.50;;;20.62;47.00
60212;BME280;46079;48.686;15.598;2023-04-26T00:11:54;99575.06;;;20.61;47.28
60212;BME280;46079;48.686;15.598;2023-04-26T00:14:20;99580.31;;;20.61;47.11
60212;BME280;46079;48.686;15.598;2023-04-26T00:16:45;99589.00;;;20.62;47.08
60212;BME280;46079;48.686;15.598;2023-04-26T00:19:11;99590.69;;;20.63;47.50
60212;BME280;46079;48.686;15.598;2023-04-26T00:21:37;99585.44;;;20.63;47.18
60212;BME280;46079;48.686;15.598;2023-04-26T00:24:03;99584.63;;;20.62;47.08
60212;BME280;46079;48.686;15.598;2023-04-26T00:26:29;99591.50;;;20.63;47.10
60212;BME280;46079;48.686;15.598;2023-04-26T00:28:55;99589.88;;;20.62;47.27
60212;BME280;46079;48.686;15.598;2023-04-26T00:31:20;99594.28;;;20.62;47.39
60212;BME280;46079;48.686;15.598;2023-04-26T00:33:46;99595.94;;;20.63;47.44
60212;BME280;46079;48.686;15.598;2023-04-26T00:36:12;99592.31;;;20.64;47.27
60212;BME280;46079;48.686;15.598;2023-04-26T00:38:37;99597.59;;;20.64;47.04
60212;BME280;46079;48.686;15.598;2023-04-26T00:41:03;99604.47;;;20.65;47.18
60212;BME280;46079;48.686;15.598;2023-04-26T00:43:28;99593.16;;;20.64;47.16
60212;BME280;46079;48.686;15.598;2023-04-26T00:45:53;99594.81;;;20.65;47.37
60212;BME280;46079;48.686;15.598;2023-04-26T00:48:19;99599.22;;;20.65;47.27
60212;BME280;46079;48.686;15.598;2023-04-26T00:50:45;99604.47;;;20.65;47.04
60212;BME280;46079;48.686;15.598;2023-04-26T00:53:12;99604.47;;;20.65;47.59
60212;BME280;46079;48.686;15.598;2023-04-26T00:55:40;99593.97;;;20.65;47.17
60212;BME280;46079;48.686;15.598;2023-04-26T00:58:06;99594.81;;;20.65;47.26
60212;BME280;46079;48.686;15.598;2023-04-26T01:00:31;99605.34;;;20.65;47.37
60212;BME280;46079;48.686;15.598;2023-04-26T01:02:57;99600.91;;;20.66;47.25
60212;BME280;46079;48.686;15.598;2023-04-26T01:05:23;99600.09;;;20.65;47.08
60212;BME280;46079;48.686;15.598;2023-04-26T01:07:48;99606.16;;;20.66;47.30
60212;BME280;46079;48.686;15.598;2023-04-26T01:10:14;99600.91;;;20.66;47.21
60212;BME280;46079;48.686;15.598;2023-04-26T01:12:39;99608.78;;;20.66;47.39
60212;BME280;46079;48.686;15.598;2023-04-26T01:15:06;99609.75;;;20.65;47.20
60212;BME280;46079;48.686;15.598;2023-04-26T01:17:31;99603.53;;;20.66;47.36
60212;BME280;46079;48.686;15.598;2023-04-26T01:19:57;99603.53;;;20.66;47.56
60212;BME280;46079;48.686;15.598;2023-04-26T01:22:22;99605.34;;;20.65;47.63
60212;BME280;46079;48.686;15.598;2023-04-26T01:24:49;99612.38;;;20.65;47.25
60212;BME280;46079;48.686;15.598;2023-04-26T01:27:15;99612.38;;;20.65;47.49
60212;BME280;46079;48.686;15.598;2023-04-26T01:29:41;99606.28;;;20.64;47.61
60212;BME280;46079;48.686;15.598;2023-04-26T01:32:07;99607.28;;;20.63;47.70
60212;BME280;46079;48.686;15.598;2023-04-26T01:34:32;99619.44;;;20.64;47.43
60212;BME280;46079;48.686;15.598;2023-04-26T01:36:59;99620.25;;;20.65;47.54
60212;BME280;46079;48.686;15.598;2023-04-26T01:39:25;99622.06;;;20.64;47.40
60212;BME280;46079;48.686;15.598;2023-04-26T01:41:51;99627.31;;;20.64;47.59
60212;BME280;46079;48.686;15.598;2023-04-26T01:44:16;99632.72;;;20.63;47.51
60212;BME280;46079;48.686;15.598;2023-04-26T01:46:42;99628.28;;;20.63;47.48
60212;BME280;46079;48.686;15.598;2023-04-26T01:49:07;99633.56;;;20.63;47.53
60212;BME280;46079;48.686;15.598;2023-04-26T01:51:32;99632.72;;;20.63;47.59
60212;BME280;46079;48.686;15.598;2023-04-26T01:53:58;99638.81;;;20.63;47.26
60212;BME280;46079;48.686;15.598;2023-04-26T01:56:24;99638.00;;;20.63;47.55
60212;BME280;46079;48.686;15.598;2023-04-26T01:58:50;99638.00;;;20.63;47.79
60212;BME280;46079;48.686;15.598;2023-04-26T02:01:15;99638.81;;;20.63;47.61
60212;BME280;46079;48.686;15.598;2023-04-26T02:03:41;99638.00;;;20.63;47.73
60212;BME280;46079;48.686;15.598;2023-04-26T02:06:06;99643.25;;;20.63;47.78
60212;BME280;46079;48.686;15.598;2023-04-26T02:08:32;99639.78;;;20.62;48.01
60212;BME280;46079;48.686;15.598;2023-04-26T02:10:58;99644.88;;;20.64;47.82
60212;BME280;46079;48.686;15.598;2023-04-26T02:13:23;99632.72;;;20.63;47.92
60212;BME280;46079;48.686;15.598;2023-04-26T02:15:49;99636.19;;;20.63;47.93
60212;BME280;46079;48.686;15.598;2023-04-26T02:18:16;99641.44;;;20.63;47.81
60212;BME280;46079;48.686;15.598;2023-04-26T02:20:42;99647.69;;;20.62;47.75
60212;BME280;46079;48.686;15.598;2023-04-26T02:23:09;99644.06;;;20.63;47.98
60212;BME280;46079;48.686;15.598;2023-04-26T02:25:35;99649.31;;;20.63;47.91
60212;BME280;46079;48.686;15.598;2023-04-26T02:28:01;99652.94;;;20.62;47.97
60212;BME280;46079;48.686;15.598;2023-04-26T02:30:27;99649.31;;;20.63;47.85
60212;BME280;46079;48.686;15.598;2023-04-26T02:32:55;99646.53;;;20.65;48.09
60212;BME280;46079;48.686;15.598;2023-04-26T02:35:22;99652.78;;;20.64;48.00
60212;BME280;46079;48.686;15.598;2023-04-26T02:37:47;99654.56;;;20.63;48.06
60212;BME280;46079;48.686;15.598;2023-04-26T02:40:14;99650.16;;;20.64;47.79
60212;BME280;46079;48.686;15.598;2023-04-26T02:42:40;99647.50;;;20.64;48.13
60212;BME280;46079;48.686;15.598;2023-04-26T02:45:06;99641.44;;;20.63;48.13
60212;BME280;46079;48.686;15.598;2023-04-26T02:47:32;99644.88;;;20.64;47.94
60212;BME280;46079;48.686;15.598;2023-04-26T02:49:57;99642.44;;;20.62;48.16
60212;BME280;46079;48.686;15.598;2023-04-26T02:52:23;99643.25;;;20.63;47.82
60212;BME280;46079;48.686;15.598;2023-04-26T02:54:48;99643.25;;;20.63;47.89
60212;BME280;46079;48.686;15.598;2023-04-26T02:57:13;99644.06;;;20.63;47.84
60212;BME280;46079;48.686;15.598;2023-04-26T02:59:39;99645.19;;;20.61;47.81
60212;BME280;46079;48.686;15.598;2023-04-26T03:02:04;99652.09;;;20.62;47.86
60212;BME280;46079;48.686;15.598;2023-04-26T03:04:32;99651.94;;;20.63;48.12
60212;BME280;46079;48.686;15.598;2023-04-26T03:06:58;99651.13;;;20.63;48.00
60212;BME280;46079;48.686;15.598;2023-04-26T03:09:23;99649.47;;;20.62;48.03
60212;BME280;46079;48.686;15.598;2023-04-26T03:11:49;99659.00;;;20.63;47.98
60212;BME280;46079;48.686;15.598;2023-04-26T03:14:14;99651.13;;;20.63;48.23
60212;BME280;46079;48.686;15.598;2023-04-26T03:16:42;99658.19;;;20.62;48.13
60212;BME280;46079;48.686;15.598;2023-04-26T03:19:08;99668.69;;;20.62;48.14
60212;BME280;46079;48.686;15.598;2023-04-26T03:21:33;99667.84;;;20.62;47.97
60212;BME280;46079;48.686;15.598;2023-04-26T03:23:59;99680.03;;;20.63;48.19
60212;BME280;46079;48.686;15.598;2023-04-26T03:26:24;99680.03;;;20.63;48.13
60212;BME280;46079;48.686;15.598;2023-04-26T03:28:49;99676.44;;;20.64;48.12
60212;BME280;46079;48.686;15.598;2023-04-26T03:31:15;99673.97;;;20.62;48.08
60212;BME280;46079;48.686;15.598;2023-04-26T03:33:40;99676.59;;;20.62;48.15
60212;BME280;46079;48.686;15.598;2023-04-26T03:36:06;99680.03;;;20.63;48.07
60212;BME280;46079;48.686;15.598;2023-04-26T03:38:31;99683.63;;;20.62;48.64
60212;BME280;46079;48.686;15.598;2023-04-26T03:40:57;99681.84;;;20.62;47.95
60212;BME280;46079;48.686;15.598;2023-04-26T03:43:22;99680.84;;;20.63;48.32
60212;BME280;46079;48.686;15.598;2023-04-26T03:45:48;99679.22;;;20.62;48.31
60212;BME280;46079;48.686;15.598;2023-04-26T03:48:14;99676.44;;;20.64;48.15
60212;BME280;46079;48.686;15.598;2023-04-26T03:50:41;99683.47;;;20.63;48.28
60212;BME280;46079;48.686;15.598;2023-04-26T03:53:09;99691.38;;;20.63;48.35
60212;BME280;46079;48.686;15.598;2023-04-26T03:55:35;99694.97;;;20.62;48.23
60212;BME280;46079;48.686;15.598;2023-04-26T03:58:01;99700.06;;;20.64;48.23
60212;BME280;46079;48.686;15.598;2023-04-26T04:00:27;99700.06;;;20.64;48.10
60212;BME280;46079;48.686;15.598;2023-04-26T04:02:53;99698.28;;;20.64;48.22
60212;BME280;46079;48.686;15.598;2023-04-26T04:05:18;99705.19;;;20.65;48.19
60212;BME280;46079;48.686;15.598;2023-04-26T04:07:44;99699.09;;;20.65;48.09
60212;BME280;46079;48.686;15.598;2023-04-26T04:10:09;99695.63;;;20.64;48.25
60212;BME280;46079;48.686;15.598;2023-04-26T04:12:35;99696.34;;;20.67;48.24
60212;BME280;46079;48.686;15.598;2023-04-26T04:15:01;99694.69;;;20.65;48.17
60212;BME280;46079;48.686;15.598;2023-04-26T04:17:27;99688.59;;;20.65;48.21
60212;BME280;46079;48.686;15.598;2023-04-26T04:19:52;99695.50;;;20.66;48.06
60212;BME280;46079;48.686;15.598;2023-04-26T04:22:17;99696.34;;;20.67;48.35
60212;BME280;46079;48.686;15.598;2023-04-26T04:24:43;99702.41;;;20.67;48.24
60212;BME280;46079;48.686;15.598;2023-04-26T04:27:09;99710.28;;;20.67;48.18
60212;BME280;46079;48.686;15.598;2023-04-26T04:29:34;99707.66;;;20.67;48.26
60212;BME280;46079;48.686;15.598;2023-04-26T04:32:00;99715.41;;;20.69;48.06
60212;BME280;46079;48.686;15.598;2023-04-26T04:34:26;99725.13;;;20.68;48.25
60212;BME280;46079;48.686;15.598;2023-04-26T04:36:51;99729.38;;;20.69;48.08
60212;BME280;46079;48.686;15.598;2023-04-26T04:39:17;99726.88;;;20.68;48.45
60212;BME280;46079;48.686;15.598;2023-04-26T04:41:42;99727.56;;;20.70;48.45
60212;BME280;46079;48.686;15.598;2023-04-26T04:44:17;99730.38;;;20.68;48.38
60212;BME280;46079;48.686;15.598;2023-04-26T04:46:43;99726.75;;;20.69;48.29
60212;BME280;46079;48.686;15.598;2023-04-26T04:49:10;99728.41;;;20.70;48.43
60212;BME280;46079;48.686;15.598;2023-04-26T04:51:40;99732.72;;;20.71;47.40
60212;BME280;46079;48.686;15.598;2023-04-26T04:54:15;99732.72;;;20.71;46.92
60212;BME280;46079;48.686;15.598;2023-04-26T04:56:41;99736.16;;;20.72;47.93
60212;BME280;46079;48.686;15.598;2023-04-26T04:59:07;99739.59;;;20.72;47.75
60212;BME280;46079;48.686;15.598;2023-04-26T05:01:33;99743.06;;;20.73;47.81
60212;BME280;46079;48.686;15.598;2023-04-26T05:03:59;99743.88;;;20.73;47.83
60212;BME280;46079;48.686;15.598;2023-04-26T05:06:26;99733.38;;;20.73;47.83
60212;BME280;46079;48.686;15.598;2023-04-26T05:08:52;99743.88;;;20.73;47.97
60212;BME280;46079;48.686;15.598;2023-04-26T05:11:17;99744.56;;;20.75;47.88
60212;BME280;46079;48.686;15.598;2023-04-26T05:13:43;99747.06;;;20.77;47.73
60212;BME280;46079;48.686;15.598;2023-04-26T05:16:08;99745.41;;;20.76;47.72
60212;BME280;46079;48.686;15.598;2023-04-26T05:18:33;99751.34;;;20.78;47.65
60212;BME280;46079;48.686;15.598;2023-04-26T05:20:59;99755.66;;;20.79;47.96
60212;BME280;46079;48.686;15.598;2023-04-26T05:23:25;99754.50;;;20.81;47.87
60212;BME280;46079;48.686;15.598;2023-04-26T05:25:50;99756.00;;;20.84;47.84
60212;BME280;46079;48.686;15.598;2023-04-26T05:28:16;99763.78;;;20.85;47.92
60212;BME280;46079;48.686;15.598;2023-04-26T05:30:41;99768.03;;;20.86;47.61
60212;BME280;46079;48.686;15.598;2023-04-26T05:33:07;99762.66;;;20.88;47.94
60212;BME280;46079;48.686;15.598;2023-04-26T05:35:32;99764.31;;;20.89;47.77
60212;BME280;46079;48.686;15.598;2023-04-26T05:37:58;99763.19;;;20.92;47.84
60212;BME280;46079;48.686;15.598;2023-04-26T05:40:23;99773.56;;;20.93;48.14
60212;BME280;46079;48.686;15.598;2023-04-26T05:42:49;99769.13;;;20.94;48.02
60212;BME280;46079;48.686;15.598;2023-04-26T05:45:15;99771.47;;;20.97;48.12
60212;BME280;46079;48.686;15.598;2023-04-26T05:47:40;99772.28;;;20.97;47.93
60212;BME280;46079;48.686;15.598;2023-04-26T05:50:06;99769.53;;;20.99;47.98
60212;BME280;46079;48.686;15.598;2023-04-26T05:52:32;99772.97;;;20.99;48.04
60212;BME280;46079;48.686;15.598;2023-04-26T05:55:01;99782.38;;;21.02;48.09
60212;BME280;46079;48.686;15.598;2023-04-26T05:57:29;99777.13;;;21.02;48.02
60212;BME280;46079;48.686;15.598;2023-04-26T05:59:54;99792.75;;;21.03;48.08
60212;BME280;46079;48.686;15.598;2023-04-26T06:02:19;99803.81;;;21.07;48.22
60212;BME280;46079;48.686;15.598;2023-04-26T06:04:45;99802.16;;;21.06;48.14
60212;BME280;46079;48.686;15.598;2023-04-26T06:07:11;99806.44;;;21.07;48.29
60212;BME280;46079;48.686;15.598;2023-04-26T06:09:36;99806.97;;;21.10;44.95
60212;BME280;46079;48.686;15.598;2023-04-26T06:12:02;99814.56;;;21.14;40.47
60212;BME280;46079;48.686;15.598;2023-04-26T06:14:28;99815.56;;;21.13;38.14
60212;BME280;46079;48.686;15.598;2023-04-26T06:16:56;99814.75;;;21.12;37.63
60212;BME280;46079;48.686;15.598;2023-04-26T06:19:22;99823.59;;;21.11;36.23
60212;BME280;46079;48.686;15.598;2023-04-26T06:21:47;99816.69;;;21.10;36.11
60212;BME280;46079;48.686;15.598;2023-04-26T06:24:13;99824.84;;;21.07;35.93
60212;BME280;46079;48.686;15.598;2023-04-26T06:26:39;99823.19;;;21.06;35.73
60212;BME280;46079;48.686;15.598;2023-04-26T06:29:05;99823.47;;;21.03;35.42
60212;BME280;46079;48.686;15.598;2023-04-26T06:31:30;99825.44;;;21.01;34.96
60212;BME280;46079;48.686;15.598;2023-04-26T06:33:56;99828.22;;;20.99;35.23
60212;BME280;46079;48.686;15.598;2023-04-26T06:36:22;99831.25;;;20.95;34.58
60212;BME280;46079;48.686;15.598;2023-04-26T06:38:47;99841.13;;;20.93;34.96
60212;BME280;46079;48.686;15.598;2023-04-26T06:41:13;99830.19;;;20.87;34.34
60212;BME280;46079;48.686;15.598;2023-04-26T06:43:38;99843.34;;;20.87;34.35
60212;BME280;46079;48.686;15.598;2023-04-26T06:46:03;99840.00;;;20.85;34.87
60212;BME280;46079;48.686;15.598;2023-04-26T06:48:29;99834.88;;;20.84;34.35
60212;BME280;46079;48.686;15.598;2023-04-26T06:50:54;99838.50;;;20.83;34.42
60212;BME280;46079;48.686;15.598;2023-04-26T06:53:20;99838.63;;;20.81;34.64
60212;BME280;46079;48.686;15.598;2023-04-26T06:55:45;99844.88;;;20.80;33.69
60212;BME280;46079;48.686;15.598;2023-04-26T06:58:11;99847.50;;;20.80;34.37
60212;BME280;46079;48.686;15.598;2023-04-26T07:00:36;99850.28;;;20.79;33.84
60212;BME280;46079;48.686;15.598;2023-04-26T07:03:02;99841.53;;;20.78;33.70
60212;BME280;46079;48.686;15.598;2023-04-26T07:05:27;99852.91;;;20.79;34.42
60212;BME280;46079;48.686;15.598;2023-04-26T07:07:52;99844.03;;;20.80;34.29
60212;BME280;46079;48.686;15.598;2023-04-26T07:10:18;99841.41;;;20.80;33.74
60212;BME280;46079;48.686;15.598;2023-04-26T07:12:45;99839.59;;;20.80;33.75
60212;BME280;46079;48.686;15.598;2023-04-26T07:15:11;99842.09;;;20.82;36.54
60212;BME280;46079;48.686;15.598;2023-04-26T07:17:36;99842.63;;;20.85;36.56
60212;BME280;46079;48.686;15.598;2023-04-26T07:20:02;99837.38;;;20.85;35.22
60212;BME280;46079;48.686;15.598;2023-04-26T07:22:28;99836.56;;;20.85;34.09
60212;BME280;46079;48.686;15.598;2023-04-26T07:24:53;99832.25;;;20.84;33.60
60212;BME280;46079;48.686;15.598;2023-04-26T07:27:19;99832.41;;;20.82;33.44
60212;BME280;46079;48.686;15.598;2023-04-26T07:29:44;99836.84;;;20.82;33.55
60212;BME280;46079;48.686;15.598;2023-04-26T07:32:09;99843.88;;;20.81;34.21
60212;BME280;46079;48.686;15.598;2023-04-26T07:34:35;99842.09;;;20.82;33.58
60212;BME280;46079;48.686;15.598;2023-04-26T07:37:01;99842.09;;;20.82;33.46
60212;BME280;46079;48.686;15.598;2023-04-26T07:39:29;99845.16;;;20.77;33.40
60212;BME280;46079;48.686;15.598;2023-04-26T07:41:54;99848.75;;;20.76;33.73
60212;BME280;46079;48.686;15.598;2023-04-26T07:44:19;99843.50;;;20.76;33.09
60212;BME280;46079;48.686;15.598;2023-04-26T07:46:45;99851.38;;;20.76;35.38
60212;BME280;46079;48.686;15.598;2023-04-26T07:49:10;99841.53;;;20.78;34.53
60212;BME280;46079;48.686;15.598;2023-04-26T07:51:36;99841.53;;;20.78;33.65
60212;BME280;46079;48.686;15.598;2023-04-26T07:54:01;99849.59;;;20.77;33.28
60212;BME280;46079;48.686;15.598;2023-04-26T07:56:26;99840.88;;;20.76;33.20
60212;BME280;46079;48.686;15.598;2023-04-26T07:58:52;99847.66;;;20.79;35.92
60212;BME280;46079;48.686;15.598;2023-04-26T08:01:17;99843.88;;;20.81;36.92
60212;BME280;46079;48.686;15.598;2023-04-26T08:03:43;99845.41;;;20.84;37.82
60212;BME280;46079;48.686;15.598;2023-04-26T08:06:08;99852.19;;;20.86;37.75
60212;BME280;46079;48.686;15.598;2023-04-26T08:08:34;99856.47;;;20.87;38.54
60212;BME280;46079;48.686;15.598;2023-04-26T08:11:07;99857.16;;;20.90;38.34
60212;BME280;46079;48.686;15.598;2023-04-26T08:13:34;99851.88;;;20.90;39.48
60212;BME280;46079;48.686;15.598;2023-04-26T08:15:59;99845.69;;;20.91;39.64
60212;BME280;46079;48.686;15.598;2023-04-26T08:18:25;99857.84;;;20.92;39.74
60212;BME280;46079;48.686;15.598;2023-04-26T08:20:50;99860.34;;;20.93;40.54
60212;BME280;46079;48.686;15.598;2023-04-26T08:23:16;99861.97;;;20.94;41.18
60212;BME280;46079;48.686;15.598;2023-04-26T08:25:43;99855.91;;;20.94;41.70
60212;BME280;46079;48.686;15.598;2023-04-26T08:28:08;99865.44;;;20.95;41.88
60212;BME280;46079;48.686;15.598;2023-04-26T08:30:38;99860.19;;;20.95;42.18
60212;BME280;46079;48.686;15.598;2023-04-26T08:33:04;99861.69;;;20.97;42.68
60212;BME280;46079;48.686;15.598;2023-04-26T08:35:29;99865.84;;;21.00;42.94
60212;BME280;46079;48.686;15.598;2023-04-26T08:37:55;99857.00;;;21.01;43.09
60212;BME280;46079;48.686;15.598;2023-04-26T08:40:24;99856.00;;;21.02;43.82
60212;BME280;46079;48.686;15.598;2023-04-26T08:42:49;99856.84;;;21.02;43.77
60212;BME280;46079;48.686;15.598;2023-04-26T08:45:17;99857.66;;;21.03;44.00
60212;BME280;46079;48.686;15.598;2023-04-26T08:47:50;99856.72;;;21.04;44.03
60212;BME280;46079;48.686;15.598;2023-04-26T08:50:21;99859.34;;;21.04;43.54
60212;BME280;46079;48.686;15.598;2023-04-26T08:52:50;99863.91;;;21.02;43.10
60212;BME280;46079;48.686;15.598;2023-04-26T08:55:17;99862.09;;;21.02;43.23
60212;BME280;46079;48.686;15.598;2023-04-26T08:57:48;99864.72;;;21.02;43.14
60212;BME280;46079;48.686;15.598;2023-04-26T09:00:16;99861.13;;;21.03;43.60
60212;BME280;46079;48.686;15.598;2023-04-26T09:02:47;99861.28;;;21.02;43.36
60212;BME280;46079;48.686;15.598;2023-04-26T09:05:12;99858.66;;;21.02;43.38
60212;BME280;46079;48.686;15.598;2023-04-26T09:07:40;99871.78;;;21.02;43.43
60212;BME280;46079;48.686;15.598;2023-04-26T09:10:07;99863.91;;;21.02;43.60
60212;BME280;46079;48.686;15.598;2023-04-26T09:12:33;99866.53;;;21.02;43.80
60212;BME280;46079;48.686;15.598;2023-04-26T09:15:03;99855.84;;;21.03;43.73
60212;BME280;46079;48.686;15.598;2023-04-26T09:17:33;99873.31;;;21.04;44.00
60212;BME280;46079;48.686;15.598;2023-04-26T09:20:01;99863.63;;;21.05;44.09
60212;BME280;46079;48.686;15.598;2023-04-26T09:22:39;99861.69;;;21.07;44.35
60212;BME280;46079;48.686;15.598;2023-04-26T09:25:05;99860.00;;;21.06;44.86
60212;BME280;46079;48.686;15.598;2023-04-26T09:27:39;99856.41;;;21.07;44.96
60212;BME280;46079;48.686;15.598;2023-04-26T09:32:54;99865.13;;;21.07;45.15
60212;BME280;46079;48.686;15.598;2023-04-26T09:35:39;99861.69;;;21.07;44.96
60212;BME280;46079;48.686;15.598;2023-04-26T09:38:16;99861.69;;;21.07;44.96
60212;BME280;46079;48.686;15.598;2023-04-26T09:40:43;99860.00;;;21.06;45.18
60212;BME280;46079;48.686;15.598;2023-04-26T09:43:20;99861.81;;;21.05;45.03
60212;BME280;46079;48.686;15.598;2023-04-26T09:45:51;99861.69;;;21.07;44.98
60212;BME280;46079;48.686;15.598;2023-04-26T09:48:22;99852.13;;;21.06;44.83
60212;BME280;46079;48.686;15.598;2023-04-26T09:50:51;99851.16;;;21.07;44.53
60212;BME280;46079;48.686;15.598;2023-04-26T09:53:26;99861.69;;;21.07;44.52
60212;BME280;46079;48.686;15.598;2023-04-26T09:55:53;99853.09;;;21.05;44.32
60212;BME280;46079;48.686;15.598;2023-04-26T09:58:19;99848.66;;;21.05;44.18
60212;BME280;46079;48.686;15.598;2023-04-26T10:00:46;99847.00;;;21.04;44.17
60212;BME280;46079;48.686;15.598;2023-04-26T10:03:14;99858.34;;;21.05;44.21
60212;BME280;46079;48.686;15.598;2023-04-26T10:05:40;99855.84;;;21.03;43.81
60212;BME280;46079;48.686;15.598;2023-04-26T10:08:06;99853.09;;;21.05;43.81
60212;BME280;46079;48.686;15.598;2023-04-26T10:10:32;99845.22;;;21.05;43.79
60212;BME280;46079;48.686;15.598;2023-04-26T10:12:58;99841.75;;;21.04;43.79
60212;BME280;46079;48.686;15.598;2023-04-26T10:15:25;99851.28;;;21.05;43.66
60212;BME280;46079;48.686;15.598;2023-04-26T10:17:50;99856.72;;;21.04;43.63
60212;BME280;46079;48.686;15.598;2023-04-26T10:20:18;99861.13;;;21.03;43.62
60212;BME280;46079;48.686;15.598;2023-04-26T10:22:49;99863.63;;;21.05;43.86
60212;BME280;46079;48.686;15.598;2023-04-26T10:25:15;99850.59;;;21.03;43.69
60212;BME280;46079;48.686;15.598;2023-04-26T10:30:10;99858.50;;;21.03;43.54
60212;BME280;46079;48.686;15.598;2023-04-26T10:35:21;99855.03;;;21.03;43.41
60212;BME280;46079;48.686;15.598;2023-04-26T10:40:36;99855.84;;;21.03;43.34
60212;BME280;46079;48.686;15.598;2023-04-26T10:45:47;99844.50;;;21.03;43.35
60212;BME280;46079;48.686;15.598;2023-04-26T10:48:14;99842.88;;;21.02;43.39
60212;BME280;46079;48.686;15.598;2023-04-26T10:56:09;99824.47;;;21.02;43.20
60212;BME280;46079;48.686;15.598;2023-04-26T10:58:34;99813.94;;;21.02;43.21
60212;BME280;46079;48.686;15.598;2023-04-26T11:01:07;99817.41;;;21.02;43.34
60212;BME280;46079;48.686;15.598;2023-04-26T11:03:36;99825.44;;;21.01;43.28
60212;BME280;46079;48.686;15.598;2023-04-26T11:06:22;99833.34;;;21.01;43.37
60212;BME280;46079;48.686;15.598;2023-04-26T11:08:47;99828.22;;;20.99;43.24
60212;BME280;46079;48.686;15.598;2023-04-26T11:11:15;99831.66;;;21.00;43.44
60212;BME280;46079;48.686;15.598;2023-04-26T11:13:41;99836.09;;;20.99;43.30
60212;BME280;46079;48.686;15.598;2023-04-26T11:16:08;99830.84;;;20.99;43.22
60212;BME280;46079;48.686;15.598;2023-04-26T11:18:34;99824.59;;;21.00;43.37
60212;BME280;46079;48.686;15.598;2023-04-26T11:21:03;99824.47;;;21.02;43.35
60212;BME280;46079;48.686;15.598;2023-04-26T11:23:29;99821.97;;;21.00;43.27
60212;BME280;46079;48.686;15.598;2023-04-26T11:26:05;99821.97;;;21.00;43.28
60212;BME280;46079;48.686;15.598;2023-04-26T11:28:36;99819.34;;;21.00;43.27
60212;BME280;46079;48.686;15.598;2023-04-26T11:31:03;99813.13;;;21.01;43.13
60212;BME280;46079;48.686;15.598;2023-04-26T11:33:28;99818.38;;;21.01;43.16
60212;BME280;46079;48.686;15.598;2023-04-26T11:35:57;99811.31;;;21.02;43.23
60212;BME280;46079;48.686;15.598;2023-04-26T11:38:23;99816.56;;;21.02;43.12
60212;BME280;46079;48.686;15.598;2023-04-26T11:40:57;99812.13;;;21.02;43.22
60212;BME280;46079;48.686;15.598;2023-04-26T11:43:30;99813.94;;;21.02;43.12
60212;BME280;46079;48.686;15.598;2023-04-26T11:45:58;99812.28;;;21.01;43.32
60212;BME280;46079;48.686;15.598;2023-04-26T11:48:27;99815.75;;;21.01;43.37
60212;BME280;46079;48.686;15.598;2023-04-26T11:50:56;99810.50;;;21.01;43.34
60212;BME280;46079;48.686;15.598;2023-04-26T11:53:23;99814.94;;;21.01;43.29
60212;BME280;46079;48.686;15.598;2023-04-26T11:55:49;99806.19;;;21.00;43.15
60212;BME280;46079;48.686;15.598;2023-04-26T11:58:15;99808.00;;;21.00;43.21
60212;BME280;46079;48.686;15.598;2023-04-26T12:00:57;99813.25;;;21.00;43.23
60212;BME280;46079;48.686;15.598;2023-04-26T12:03:28;99816.69;;;21.00;43.23
60212;BME280;46079;48.686;15.598;2023-04-26T12:05:54;99810.63;;;21.00;43.09
60212;BME280;46079;48.686;15.598;2023-04-26T12:08:23;99809.78;;;20.99;43.20
60212;BME280;46079;48.686;15.598;2023-04-26T12:10:49;99801.91;;;20.99;43.16
60212;BME280;46079;48.686;15.598;2023-04-26T12:13:15;99804.53;;;20.99;43.30
60212;BME280;46079;48.686;15.598;2023-04-26T12:15:40;99810.63;;;21.00;43.25
60212;BME280;46079;48.686;15.598;2023-04-26T12:18:09;99811.59;;;20.99;43.23
60212;BME280;46079;48.686;15.598;2023-04-26T12:20:37;99807.16;;;20.99;43.25
60212;BME280;46079;48.686;15.598;2023-04-26T12:25:34;99804.66;;;20.98;43.39
60212;BME280;46079;48.686;15.598;2023-04-26T12:28:00;99802.03;;;20.98;43.38
60212;BME280;46079;48.686;15.598;2023-04-26T12:30:27;99801.09;;;20.99;43.17
60212;BME280;46079;48.686;15.598;2023-04-26T12:32:53;99796.13;;;20.96;43.23
60212;BME280;46079;48.686;15.598;2023-04-26T12:35:19;99802.91;;;20.98;43.34
60212;BME280;46079;48.686;15.598;2023-04-26T12:37:44;99802.91;;;20.98;43.32
60212;BME280;46079;48.686;15.598;2023-04-26T12:40:12;99807.31;;;20.98;43.36
60212;BME280;46079;48.686;15.598;2023-04-26T12:42:37;99812.56;;;20.98;43.08
60212;BME280;46079;48.686;15.598;2023-04-26T12:45:03;99814.38;;;20.97;43.38
60212;BME280;46079;48.686;15.598;2023-04-26T12:47:29;99806.47;;;20.97;43.42
60212;BME280;46079;48.686;15.598;2023-04-26T12:49:55;99802.03;;;20.98;43.31
60212;BME280;46079;48.686;15.598;2023-04-26T12:52:20;99799.41;;;20.98;43.64
60212;BME280;46079;48.686;15.598;2023-04-26T12:54:46;99798.59;;;20.97;43.53
60212;BME280;46079;48.686;15.598;2023-04-26T12:57:13;99792.50;;;20.97;43.53
60212;BME280;46079;48.686;15.598;2023-04-26T12:59:38;99802.19;;;20.96;43.49
60212;BME280;46079;48.686;15.598;2023-04-26T13:02:04;99797.75;;;20.97;43.44
60212;BME280;46079;48.686;15.598;2023-04-26T13:04:29;99799.41;;;20.98;43.66
60212;BME280;46079;48.686;15.598;2023-04-26T13:06:55;99790.69;;;20.97;43.76
60212;BME280;46079;48.686;15.598;2023-04-26T13:09:20;99798.59;;;20.97;43.76